JIA5401 KDCA-KHPN
Flight info
| Callsign | JIA5401 |
|---|---|
| Flight time | N/A |
| Altitude | 23000 |
| Route | KDCA SOOKI6 SWANN BROSS NACYN CYN BOUNO5 KHPN |
| Aircraft | CRJ7/M-SDE2E3FGIRW/LB1 |
Departure
| Time | 2026-05-05 00:57 |
|---|---|
| Airport | Ronald Reagan Washington National Airport (KDCA) |
Arrival
| Time | N/A |
|---|---|
| Airport | Westchester County Airport (KHPN) |
| Time | Latitude | Longitude | Altitude | Speed | Heading |
|---|---|---|---|---|---|
| 2026-05-05 00:41 | 38.85741 | -77.04321 | 26 ft | 0 kts | 354° |
| 2026-05-05 00:48 | 38.85734 | -77.04320 | 28 ft | 2 kts | 354° |
| 2026-05-05 00:48 | 38.85719 | -77.04325 | 29 ft | 2 kts | 47° |
| 2026-05-05 00:48 | 38.85714 | -77.04338 | 26 ft | 0 kts | 85° |
| 2026-05-05 00:52 | 38.85715 | -77.04322 | 29 ft | 6 kts | 88° |
| 2026-05-05 00:52 | 38.85714 | -77.04234 | 26 ft | 9 kts | 79° |
| 2026-05-05 00:53 | 38.85724 | -77.04202 | 27 ft | 1 kts | 65° |
| 2026-05-05 00:53 | 38.85740 | -77.04157 | 27 ft | 8 kts | 66° |
| 2026-05-05 00:53 | 38.85753 | -77.04120 | 28 ft | 6 kts | 66° |
| 2026-05-05 00:53 | 38.85801 | -77.04061 | 27 ft | 13 kts | 5° |
| 2026-05-05 00:54 | 38.85896 | -77.04065 | 24 ft | 15 kts | 358° |
| 2026-05-05 00:54 | 38.85939 | -77.04026 | 24 ft | 8 kts | 63° |
| 2026-05-05 00:54 | 38.86000 | -77.03985 | 24 ft | 0 kts | 16° |
| 2026-05-05 00:54 | 38.86001 | -77.03985 | 24 ft | 0 kts | 16° |
| 2026-05-05 00:55 | 38.86025 | -77.03976 | 24 ft | 9 kts | 16° |
| 2026-05-05 00:55 | 38.86086 | -77.03930 | 22 ft | 11 kts | 68° |
| 2026-05-05 00:56 | 38.86089 | -77.03870 | 21 ft | 0 kts | 142° |
| 2026-05-05 00:56 | 38.86087 | -77.03869 | 24 ft | 0 kts | 177° |
| 2026-05-05 00:56 | 38.86051 | -77.03867 | 21 ft | 31 kts | 176° |
| 2026-05-05 00:56 | 38.85537 | -77.03814 | 24 ft | 114 kts | 175° |
| 2026-05-05 00:57 | 38.84567 | -77.03724 | 293 ft | 152 kts | 177° |
| 2026-05-05 00:57 | 38.83487 | -77.03634 | 1072 ft | 161 kts | 175° |
| 2026-05-05 00:57 | 38.82481 | -77.03065 | 2116 ft | 162 kts | 144° |
| 2026-05-05 00:57 | 38.81918 | -77.01718 | 2943 ft | 187 kts | 106° |
| 2026-05-05 00:58 | 38.82069 | -76.99970 | 3617 ft | 211 kts | 71° |
| 2026-05-05 00:58 | 38.82881 | -76.98381 | 4512 ft | 211 kts | 49° |
| 2026-05-05 00:58 | 38.83822 | -76.96971 | 5448 ft | 208 kts | 47° |
| 2026-05-05 00:58 | 38.84792 | -76.95558 | 6199 ft | 213 kts | 46° |
| 2026-05-05 00:59 | 38.85751 | -76.94113 | 6990 ft | 210 kts | 50° |
| 2026-05-05 00:59 | 38.86609 | -76.92604 | 7762 ft | 211 kts | 50° |
| 2026-05-05 00:59 | 38.87423 | -76.91038 | 8474 ft | 212 kts | 53° |
| 2026-05-05 00:59 | 38.88184 | -76.89413 | 9194 ft | 213 kts | 55° |
| 2026-05-05 01:00 | 38.88877 | -76.87723 | 9888 ft | 213 kts | 57° |
| 2026-05-05 01:00 | 38.89494 | -76.85994 | 10520 ft | 214 kts | 61° |
| 2026-05-05 01:00 | 38.90057 | -76.84218 | 11099 ft | 216 kts | 64° |
| 2026-05-05 01:00 | 38.90601 | -76.82324 | 11385 ft | 236 kts | 66° |
| 2026-05-05 01:01 | 38.91132 | -76.80315 | 11925 ft | 240 kts | 68° |
| 2026-05-05 01:01 | 38.91406 | -76.79216 | 12187 ft | 243 kts | 69° |
| 2026-05-05 01:01 | 38.91565 | -76.78558 | 12401 ft | 242 kts | 69° |
| 2026-05-05 01:01 | 38.92036 | -76.76526 | 13082 ft | 238 kts | 68° |
| 2026-05-05 01:02 | 38.92518 | -76.74483 | 13677 ft | 237 kts | 69° |
| 2026-05-05 01:02 | 38.93001 | -76.72461 | 14134 ft | 243 kts | 68° |
| 2026-05-05 01:02 | 38.93583 | -76.70287 | 14099 ft | 271 kts | 65° |
| 2026-05-05 01:02 | 38.94354 | -76.68061 | 14584 ft | 263 kts | 58° |
| 2026-05-05 01:03 | 38.95175 | -76.66225 | 15857 ft | 216 kts | 53° |
| 2026-05-05 01:03 | 38.95971 | -76.64772 | 16812 ft | 189 kts | 49° |